Time;durP1;ratioP1;P1;durP2;ratioP2;P2;SDS_P1;SDS_P2;PMS_P1;PMS_P2;Temp;Humidity;BMP_temperature;BMP_pressure;BME280_temperature;BME280_humidity;BME280_pressure;Samples;Min_cycle;Max_cycle;Signal;HPM_P1;HPM_P2
2021/03/24 00:00:48;;;;;;;64.38;33.90;;;;;;;5.09;79.15;101910.47;5031826;28;20038;-64
2021/03/24 00:03:14;;;;;;;61.75;30.27;;;;;;;5.09;79.16;101907.84;5031612;28;20038;-64
2021/03/24 00:05:44;;;;;;;69.32;30.10;;;;;;;5.06;79.38;101908.88;5032501;28;20068;-64
2021/03/24 00:08:10;;;;;;;60.20;31.40;;;;;;;5.07;79.43;101909.72;5031395;28;20037;-64
2021/03/24 00:10:37;;;;;;;69.32;32.53;;;;;;;5.12;79.49;101915.56;5032456;28;20029;-64
2021/03/24 00:13:04;;;;;;;67.93;31.65;;;;;;;5.11;79.40;101923.63;5032365;28;20045;-64
2021/03/24 00:15:30;;;;;;;65.18;30.95;;;;;;;5.07;79.26;101915.03;5032271;28;20116;-64
2021/03/24 00:17:56;;;;;;;66.95;32.75;;;;;;;5.06;79.75;101914.19;5032133;28;20614;-64
2021/03/24 00:20:24;;;;;;;;;;;;;;;5.10;79.74;101912.16;5031870;28;20033;-64
2021/03/24 00:22:49;;;;;;;64.18;32.85;;;;;;;5.12;79.69;101922.66;5048012;28;19962;-64
2021/03/24 00:25:15;;;;;;;72.17;31.17;;;;;;;5.12;79.86;101912.09;5014634;28;20455;-64
2021/03/24 00:27:42;;;;;;;;;;;;;;;5.14;79.77;101915.47;5032351;28;20443;-64
2021/03/24 00:30:08;;;;;;;65.68;33.03;;;;;;;5.12;79.62;101923.50;5031932;28;19971;-64
2021/03/24 00:32:34;;;;;;;72.10;33.72;;;;;;;5.13;79.84;101927.00;5032088;28;20037;-64
2021/03/24 00:34:59;;;;;;;71.60;33.30;;;;;;;5.10;79.92;101914.81;5031982;28;20177;-64
2021/03/24 00:37:24;;;;;;;70.53;32.23;;;;;;;5.10;79.71;101921.91;5031869;28;20029;-64
2021/03/24 00:39:50;;;;;;;63.20;31.70;;;;;;;5.09;80.13;101915.78;5031754;28;20467;-64
2021/03/24 00:42:15;;;;;;;66.93;33.70;;;;;;;5.06;80.35;101921.28;5031969;28;20462;-64
2021/03/24 00:44:40;;;;;;;70.53;34.47;;;;;;;5.11;80.17;101918.34;5030815;28;20037;-64
2021/03/24 00:47:06;;;;;;;71.00;37.07;;;;;;;5.04;80.31;101918.72;5031934;28;20040;-64
2021/03/24 00:49:31;;;;;;;72.40;33.93;;;;;;;5.03;80.55;101911.75;5030527;28;20033;-64
2021/03/24 00:51:57;;;;;;;65.20;32.20;;;;;;;4.99;80.66;101914.69;5030750;28;20043;-64
2021/03/24 00:54:22;;;;;;;67.30;32.03;;;;;;;5.02;80.42;101915.31;5031766;28;20124;-64
2021/03/24 00:56:48;;;;;;;68.70;32.90;;;;;;;5.01;80.75;101902.16;5031531;28;20202;-64
2021/03/24 00:59:14;;;;;;;62.90;32.88;;;;;;;4.98;80.76;101903.22;5031262;28;20522;-65
2021/03/24 01:01:40;;;;;;;71.90;33.40;;;;;;;5.01;80.74;101897.75;5031619;28;20040;-64
2021/03/24 01:04:06;;;;;;;71.05;34.92;;;;;;;5.03;80.75;101902.91;5030471;28;20033;-64
2021/03/24 01:06:31;;;;;;;73.40;33.80;;;;;;;4.97;80.77;101896.25;5031450;28;20362;-64
2021/03/24 01:08:57;;;;;;;71.70;33.07;;;;;;;4.99;80.95;101898.78;5030202;28;20140;-64
2021/03/24 01:11:23;;;;;;;70.90;35.03;;;;;;;4.95;81.03;101895.47;5030368;28;20048;-64
2021/03/24 01:13:48;;;;;;;77.97;35.90;;;;;;;4.93;81.27;101892.06;5030388;28;20292;-64
2021/03/24 01:16:14;;;;;;;68.93;32.70;;;;;;;4.95;81.40;101895.47;5031413;28;20034;-64
2021/03/24 01:18:39;;;;;;;71.30;34.85;;;;;;;4.98;81.15;101889.97;5030088;28;20485;-64
2021/03/24 01:21:04;;;;;;;82.23;34.67;;;;;;;4.99;81.13;101898.78;5031311;28;20064;-64
2021/03/24 01:23:30;;;;;;;75.27;35.83;;;;;;;4.99;81.21;101888.22;5031398;28;20033;-64
2021/03/24 01:25:55;;;;;;;71.37;33.73;;;;;;;4.98;81.21;101891.78;5030197;28;20454;-64
2021/03/24 01:28:25;;;;;;;75.87;34.93;;;;;;;4.97;81.34;101884.81;5030023;28;20374;-64
2021/03/24 01:30:54;;;;;;;65.13;32.63;;;;;;;5.02;80.66;101896.78;5031291;28;20033;-64
2021/03/24 01:33:19;;;;;;;74.25;36.17;;;;;;;4.98;81.11;101891.78;5030244;28;20045;-64
2021/03/24 01:35:45;;;;;;;77.87;37.37;;;;;;;4.99;80.84;101894.34;5030330;28;20044;-64
2021/03/24 01:38:10;;;;;;;74.13;35.87;;;;;;;4.95;80.85;101892.84;5030925;28;20045;-64
2021/03/24 01:40:39;;;;;;;69.70;35.53;;;;;;;4.96;81.00;101893.69;5030198;28;20040;-64
2021/03/24 01:43:17;;;;;;;76.53;36.13;;;;;;;4.97;81.03;101895.41;5030870;28;20029;-64
2021/03/24 01:46:20;;;;;;;74.82;34.22;;;;;;;4.91;81.15;101898.41;5030110;28;20038;-64
2021/03/24 01:48:54;;;;;;;72.50;33.58;;;;;;;4.96;81.23;101894.53;5030730;28;20111;-64
2021/03/24 01:51:27;;;;;;;73.93;33.05;;;;;;;4.96;81.01;101905.09;5030936;28;20033;-64
2021/03/24 01:53:54;;;;;;;71.53;35.75;;;;;;;4.96;81.15;101901.63;5031027;28;20038;-64
2021/03/24 01:56:20;;;;;;;76.85;35.10;;;;;;;4.96;81.36;101899.81;5030827;28;20064;-64
2021/03/24 01:58:47;;;;;;;72.55;30.75;;;;;;;4.94;81.30;101893.78;5029742;28;20041;-64
2021/03/24 02:01:16;;;;;;;83.57;38.00;;;;;;;4.95;81.25;101898.13;5030085;28;20025;-64
2021/03/24 02:03:42;;;;;;;75.32;37.85;;;;;;;4.96;80.85;101897.16;5029833;28;20080;-64
2021/03/24 02:06:19;;;;;;;71.18;33.85;;;;;;;4.92;81.32;101895.69;5030859;28;20520;-64
2021/03/24 02:08:52;;;;;;;78.55;36.88;;;;;;;4.94;81.37;101896.44;5029636;28;20048;-64
2021/03/24 02:11:26;;;;;;;84.60;35.95;;;;;;;4.92;81.41;101898.34;5029999;28;20348;-64
2021/03/24 02:14:04;;;;;;;80.72;35.58;;;;;;;4.94;81.50;101893.78;5030798;28;20037;-64
2021/03/24 02:16:34;;;;;;;76.78;35.45;;;;;;;4.97;81.27;101895.41;5030779;28;20476;-64
2021/03/24 02:19:09;;;;;;;79.22;33.47;;;;;;;4.97;81.40;101888.28;5030426;28;20095;-64
2021/03/24 02:21:38;;;;;;;75.50;38.40;;;;;;;4.92;81.31;101882.44;5030871;28;20112;-64
2021/03/24 02:24:21;;;;;;;76.47;37.65;;;;;;;4.92;81.55;101893.03;5031074;28;20084;-64
2021/03/24 02:27:05;;;;;;;78.97;38.20;;;;;;;4.95;81.65;101892.84;5033364;28;20398;-64
2021/03/24 02:29:33;;;;;;;79.25;35.95;;;;;;;4.93;81.31;101886.78;5034065;28;20037;-64
2021/03/24 02:32:01;;;;;;;79.78;35.05;;;;;;;4.92;81.42;101886.91;5016840;28;20118;-64
2021/03/24 02:34:29;;;;;;;77.88;34.85;;;;;;;4.98;81.34;101883.84;5034248;28;20022;-64
2021/03/24 02:36:57;;;;;;;80.97;35.30;;;;;;;4.98;80.90;101886.50;5033256;28;20040;-64
2021/03/24 02:39:25;;;;;;;73.95;34.80;;;;;;;4.96;80.99;101883.09;5033771;28;20678;-64
2021/03/24 02:41:53;;;;;;;74.18;35.17;;;;;;;4.98;81.03;101874.09;5033265;28;20370;-64
2021/03/24 02:44:18;;;;;;;76.40;35.92;;;;;;;4.97;80.85;101874.22;5033041;28;20125;-64
2021/03/24 02:46:44;;;;;;;67.53;34.58;;;;;;;4.96;81.06;101878.63;5033138;28;20121;-64
2021/03/24 02:49:11;;;;;;;75.65;38.40;;;;;;;4.98;80.86;101871.47;5032712;28;20348;-64
2021/03/24 02:51:39;;;;;;;65.90;33.28;;;;;;;4.95;80.90;101871.66;5034049;28;20034;-65
2021/03/24 02:54:08;;;;;;;74.40;35.40;;;;;;;4.93;80.79;101876.19;5033837;28;20045;-64
2021/03/24 02:56:34;;;;;;;76.07;36.13;;;;;;;4.93;80.76;101862.97;5016325;28;20037;-64
2021/03/24 02:58:59;;;;;;;77.03;36.70;;;;;;;4.99;80.29;101867.03;5033478;28;20045;-64
2021/03/24 03:01:29;;;;;;;79.10;38.27;;;;;;;4.95;80.40;101873.47;5033812;28;20116;-64
2021/03/24 03:04:05;;;;;;;77.80;37.50;;;;;;;4.90;80.71;101863.19;5033667;28;20052;-64
2021/03/24 03:06:30;;;;;;;82.67;38.90;;;;;;;4.92;80.78;101857.78;5032624;28;20041;-64
2021/03/24 03:09:10;;;;;;;79.80;38.33;;;;;;;4.95;80.59;101861.06;5032435;28;20041;-64
2021/03/24 03:11:59;;;;;;;80.78;39.83;;;;;;;4.98;80.56;101860.88;5032492;28;20291;-64
2021/03/24 03:14:47;;;;;;;82.85;39.05;;;;;;;4.94;80.41;101854.09;5032564;28;20394;-64
2021/03/24 03:17:20;;;;;;;78.15;39.33;;;;;;;4.89;80.95;101853.53;5033560;28;20041;-64
2021/03/24 03:19:55;;;;;;;76.40;39.70;;;;;;;4.83;80.99;101851.28;5032542;28;20046;-64
2021/03/24 03:22:30;;;;;;;86.93;39.63;;;;;;;4.83;80.87;101846.00;5033427;28;20044;-64
2021/03/24 03:25:01;;;;;;;81.60;38.97;;;;;;;4.74;81.30;101855.34;5033294;28;20128;-64
2021/03/24 03:27:30;;;;;;;80.10;39.45;;;;;;;4.73;81.15;101852.81;5033216;28;20417;-64
2021/03/24 03:29:59;;;;;;;85.57;38.17;;;;;;;4.73;81.21;101853.69;5032375;28;20111;-64
2021/03/24 03:32:27;;;;;;;91.45;43.55;;;;;;;4.72;81.27;101859.91;5032233;28;20110;-64
2021/03/24 03:35:07;;;;;;;89.90;43.08;;;;;;;4.77;81.06;101856.97;5032380;28;20041;-64
2021/03/24 03:37:33;;;;;;;91.72;40.22;;;;;;;4.78;81.09;101856.03;5032729;28;20444;-64
2021/03/24 03:39:58;;;;;;;95.90;42.10;;;;;;;4.78;81.19;101853.38;5033104;28;20052;-64
2021/03/24 03:42:25;;;;;;;92.00;40.40;;;;;;;4.79;81.24;101855.06;5033057;28;20383;-64
2021/03/24 03:44:54;;;;;;;89.75;42.50;;;;;;;4.76;81.05;101860.56;5032867;28;20347;-64
2021/03/24 03:47:19;;;;;;;83.10;38.90;;;;;;;4.74;81.11;101852.72;5032920;28;20052;-64
2021/03/24 03:49:45;;;;;;;89.43;39.17;;;;;;;4.76;81.23;101855.28;5032588;28;20038;-64
2021/03/24 03:52:36;;;;;;;84.17;40.63;;;;;;;4.75;81.11;101854.44;5031732;28;20276;-64
2021/03/24 03:55:05;;;;;;;89.72;41.58;;;;;;;4.73;81.40;101853.69;5032224;28;20072;-64
2021/03/24 03:57:37;;;;;;;85.57;40.97;;;;;;;4.73;81.38;101852.81;5015014;28;20065;-64
2021/03/24 04:00:28;;;;;;;84.18;37.72;;;;;;;4.77;80.83;101852.50;5031818;28;20425;-64
2021/03/24 04:03:02;;;;;;;91.00;42.30;;;;;;;4.83;80.78;101846.00;5032732;28;20099;-64
2021/03/24 04:05:33;;;;;;;76.10;39.22;;;;;;;4.85;80.59;101844.94;5032601;28;20072;-64
2021/03/24 04:08:09;;;;;;;83.38;38.53;;;;;;;4.93;79.71;101847.09;5031557;28;20037;-64
2021/03/24 04:10:37;;;;;;;92.38;40.90;;;;;;;4.92;79.81;101848.06;5031586;28;20037;-64
2021/03/24 04:13:05;;;;;;;78.03;38.47;;;;;;;4.93;79.95;101846.25;5031346;28;20044;-64
2021/03/24 04:15:31;;;;;;;83.68;37.00;;;;;;;4.98;79.58;101849.44;5031402;28;20032;-64
2021/03/24 04:18:03;;;;;;;81.68;39.13;;;;;;;5.03;79.33;101844.69;5032104;28;20029;-64
2021/03/24 04:20:31;;;;;;;78.07;37.55;;;;;;;5.00;79.60;101847.53;5031236;28;20052;-64
2021/03/24 04:23:00;;;;;;;83.18;39.97;;;;;;;4.95;79.72;101850.50;5031311;28;20041;-64
2021/03/24 04:25:36;;;;;;;78.22;40.92;;;;;;;4.93;80.07;101848.88;5030939;28;20030;-64
2021/03/24 04:28:03;;;;;;;76.40;35.88;;;;;;;4.93;79.93;101847.09;5030959;28;20041;-64
2021/03/24 04:30:35;;;;;;;72.47;34.75;;;;;;;4.96;79.61;101849.53;5031143;28;20044;-64
2021/03/24 04:33:00;;;;;;;81.03;36.78;;;;;;;4.96;79.78;101848.69;5031242;28;20052;-64
2021/03/24 04:35:25;;;;;;;69.63;34.37;;;;;;;4.95;79.64;101847.84;5032035;28;20439;-64
2021/03/24 04:37:56;;;;;;;73.03;36.93;;;;;;;4.95;79.78;101854.94;5030743;28;20034;-64
2021/03/24 04:40:44;;;;;;;77.43;36.50;;;;;;;4.93;79.76;101862.97;5030924;28;20080;-64
2021/03/24 04:43:24;;;;;;;73.53;36.38;;;;;;;4.93;79.91;101848.88;5031935;28;20049;-64
2021/03/24 04:46:04;;;;;;;77.47;38.88;;;;;;;4.95;78.78;101855.78;5030764;28;20048;-64
2021/03/24 04:48:45;;;;;;;64.65;33.65;;;;;;;4.95;78.46;101860.22;5030383;28;20041;-64
2021/03/24 04:51:24;;;;;;;75.13;35.45;;;;;;;4.95;78.46;101855.78;5031656;28;20037;-64
2021/03/24 04:54:08;;;;;;;71.68;32.40;;;;;;;4.93;78.28;101847.09;5030583;28;20488;-64
2021/03/24 04:56:35;;;;;;;69.63;32.58;;;;;;;4.96;78.46;101857.47;5031431;28;20383;-64
2021/03/24 04:59:00;;;;;;;75.53;34.53;;;;;;;4.93;78.25;101855.03;5030316;28;20033;-64
2021/03/24 05:01:41;;;;;;;68.00;34.37;;;;;;;4.92;78.35;101855.16;5030556;28;20095;-64
2021/03/24 05:04:18;;;;;;;69.13;33.30;;;;;;;4.89;78.46;101845.56;5031470;28;20119;-64
2021/03/24 05:06:48;;;;;;;65.40;33.20;;;;;;;4.93;77.95;101849.72;5030491;28;20595;-64
2021/03/24 05:09:14;;;;;;;65.28;35.28;;;;;;;4.93;77.87;101852.38;5030251;28;20033;-75
2021/03/24 05:12:09;;;;;;;65.22;31.63;;;;;;;5.01;77.07;101849.22;5031488;28;20037;-75
2021/03/24 05:14:43;;;;;;;63.70;32.17;;;;;;;5.04;76.86;101854.34;5024743;28;20080;-75
2021/03/24 05:17:20;;;;;;;59.58;28.50;;;;;;;5.04;76.93;101849.06;5031523;28;20037;-75
2021/03/24 05:19:47;;;;;;;68.72;32.47;;;;;;;5.04;76.65;101852.53;5031115;28;20059;-76
2021/03/24 05:22:26;;;;;;;64.60;31.85;;;;;;;5.03;76.90;101848.22;5031507;28;20033;-75
2021/03/24 05:24:57;;;;;;;66.07;31.90;;;;;;;5.09;76.39;101852.25;5031173;28;20033;-75
2021/03/24 05:27:31;;;;;;;60.95;31.15;;;;;;;5.10;76.27;101858.38;5031235;28;20049;-75
2021/03/24 05:30:03;;;;;;;68.70;31.90;;;;;;;5.05;76.59;101846.28;5031395;28;20814;-75
2021/03/24 05:32:37;;;;;;;57.83;31.52;;;;;;;5.12;75.94;101859.13;5031397;28;20044;-75
2021/03/24 05:35:22;;;;;;;60.80;31.52;;;;;;;5.10;76.03;101847.78;5031241;28;20047;-75
2021/03/24 05:37:47;;;;;;;55.80;26.90;;;;;;;5.10;75.89;101840.69;5030107;28;20048;-75
2021/03/24 05:40:56;;;;;;;59.30;28.00;;;;;;;5.18;75.33;101850.81;5031203;28;20026;-75
2021/03/24 05:43:35;;;;;;;62.00;29.73;;;;;;;5.19;74.95;101849.84;5011486;28;20055;-75
2021/03/24 05:46:36;;;;;;;56.83;29.65;;;;;;;5.22;74.75;101841.69;5030226;28;20112;-75
2021/03/24 05:49:25;;;;;;;56.00;27.42;;;;;;;5.21;74.89;101850.59;5030643;28;20142;-75
2021/03/24 05:52:04;;;;;;;57.00;27.35;;;;;;;5.22;74.61;101834.63;5030287;28;20087;-75
2021/03/24 05:54:36;;;;;;;55.97;28.58;;;;;;;5.25;74.74;101839.69;5031165;28;20120;-75
2021/03/24 05:57:14;;;;;;;64.22;29.70;;;;;;;5.28;74.57;101846.59;5031093;28;20034;-76
2021/03/24 05:59:55;;;;;;;57.05;29.90;;;;;;;5.26;74.14;101840.53;5032358;28;20486;-75
2021/03/24 06:02:23;;;;;;;59.00;27.77;;;;;;;5.29;73.91;101848.28;5017577;28;20041;-75
2021/03/24 06:05:07;;;;;;;50.13;26.50;;;;;;;5.31;73.05;101850.84;5033981;28;20041;-75
2021/03/24 06:07:59;;;;;;;56.78;27.15;;;;;;;5.36;72.98;101844.31;5034947;28;20045;-75
2021/03/24 06:10:42;;;;;;;56.80;25.65;;;;;;;5.36;73.42;101856.66;5034960;28;20077;-75
2021/03/24 06:13:20;;;;;;;48.10;24.77;;;;;;;5.74;74.19;101858.56;5033876;28;20678;-75
2021/03/24 06:16:03;;;;;;;45.60;22.67;;;;;;;5.83;72.01;101844.66;5034853;28;20561;-76
2021/03/24 06:18:51;;;;;;;50.25;24.85;;;;;;;5.59;71.51;101847.19;5034382;28;20079;-74
2021/03/24 06:21:30;;;;;;;50.17;25.30;;;;;;;5.52;71.99;101851.22;5033950;28;20041;-76
2021/03/24 06:24:24;;;;;;;51.55;25.10;;;;;;;5.58;72.31;101854.28;5034661;28;20056;-75
2021/03/24 06:26:57;;;;;;;45.45;23.65;;;;;;;5.57;72.17;101857.03;5034522;28;20126;-75
2021/03/24 06:29:39;;;;;;;47.67;22.63;;;;;;;5.57;71.76;101849.09;5033186;28;20037;-74
2021/03/24 06:32:42;;;;;;;48.70;24.13;;;;;;;5.59;71.54;101855.13;5033651;28;20382;-74
2021/03/24 06:35:36;;;;;;;46.00;22.85;;;;;;;5.66;72.05;101857.25;5033518;28;20041;-75
2021/03/24 06:38:29;;;;;;;42.78;23.15;;;;;;;5.69;71.41;101853.59;5016624;28;20064;-75
2021/03/24 06:41:01;;;;;;;45.13;23.85;;;;;;;5.71;70.86;101857.84;5016657;28;20044;-74
2021/03/24 06:44:08;;;;;;;48.20;23.58;;;;;;;5.76;70.88;101860.16;5033426;28;20033;-74
2021/03/24 06:46:49;;;;;;;45.53;23.58;;;;;;;5.78;70.41;101858.22;5034200;28;20522;-75
2021/03/24 06:49:42;;;;;;;40.35;22.98;;;;;;;5.86;70.64;101865.69;5033709;28;20037;-75
2021/03/24 06:52:16;;;;;;;44.25;22.17;;;;;;;6.00;69.81;101859.47;5034148;28;20120;-75
2021/03/24 06:55:19;;;;;;;43.92;21.55;;;;;;;6.06;69.63;101861.69;5034637;28;20095;-64
2021/03/24 06:58:18;;;;;;;40.60;21.75;;;;;;;6.00;69.59;101859.47;5016797;28;20174;-64
2021/03/24 07:00:53;;;;;;;44.00;23.27;;;;;;;6.00;69.42;101860.31;5034071;28;20358;-75
2021/03/24 07:03:37;;;;;;;42.53;23.77;;;;;;;6.07;69.33;101869.53;5033875;28;20052;-74
2021/03/24 07:06:21;;;;;;;41.03;22.33;;;;;;;6.02;69.33;101865.53;5033618;28;20076;-64
2021/03/24 07:09:04;;;;;;;39.33;23.05;;;;;;;6.19;68.50;101865.19;5032579;28;20462;-64
2021/03/24 07:12:07;;;;;;;46.20;22.85;;;;;;;6.31;68.32;101864.31;5032474;28;20033;-64
2021/03/24 07:14:32;;;;;;;40.63;20.83;;;;;;;6.38;68.16;101871.88;5002949;28;20052;-64
2021/03/24 07:17:16;;;;;;;39.63;23.33;;;;;;;6.60;67.48;101873.84;5033498;28;20041;-64
2021/03/24 07:20:06;;;;;;;40.13;20.70;;;;;;;6.69;67.52;101863.41;5033261;28;20127;-64
2021/03/24 07:22:51;;;;;;;40.42;22.02;;;;;;;6.71;66.81;101864.16;5032308;28;20045;-74
2021/03/24 07:25:41;;;;;;;41.15;21.58;;;;;;;6.84;66.64;101865.94;5030903;28;20072;-75
2021/03/24 07:28:09;;;;;;;43.30;22.70;;;;;;;6.69;65.77;101868.72;5031551;28;20064;-75
2021/03/24 07:30:48;;;;;;;42.00;20.58;;;;;;;6.70;66.06;101869.59;5031763;28;20087;-74
2021/03/24 07:33:25;;;;;;;35.05;20.70;;;;;;;6.88;65.85;101873.59;5014379;28;20045;-74
2021/03/24 07:36:06;;;;;;;40.08;21.52;;;;;;;6.87;65.71;101865.72;5030699;28;20532;-75
2021/03/24 07:38:54;;;;;;;40.20;21.27;;;;;;;6.82;64.87;101860.75;5031739;28;20080;-75
2021/03/24 07:41:28;;;;;;;40.22;20.63;;;;;;;6.90;64.53;101863.66;5033161;28;20183;-75
2021/03/24 07:44:12;;;;;;;39.78;21.92;;;;;;;7.00;64.71;101869.19;5033094;28;20033;-75
2021/03/24 07:47:10;;;;;;;40.28;22.88;;;;;;;6.91;64.61;101877.81;5032240;28;20064;-75
2021/03/24 07:49:51;;;;;;;35.78;20.48;;;;;;;7.10;64.19;101867.53;5032745;28;20041;-74
2021/03/24 07:52:40;;;;;;;41.22;22.33;;;;;;;7.17;63.56;101875.91;5032988;28;20034;-75
2021/03/24 07:55:14;;;;;;;39.65;21.45;;;;;;;7.37;63.36;101871.75;5015487;28;20048;-75
2021/03/24 07:57:52;;;;;;;42.10;21.52;;;;;;;7.35;63.50;101860.41;5031616;28;20529;-75
2021/03/24 08:00:36;;;;;;;40.60;20.60;;;;;;;7.39;63.11;101859.22;5031849;28;20037;-75
2021/03/24 08:03:13;;;;;;;45.33;21.30;;;;;;;7.87;62.26;101856.47;5031694;28;20414;-75
2021/03/24 08:06:08;;;;;;;36.15;19.67;;;;;;;7.43;62.89;101865.16;5015252;28;20029;-75
2021/03/24 08:08:52;;;;;;;33.20;19.52;;;;;;;7.45;63.32;101866.75;5032378;28;20443;-75
2021/03/24 08:11:23;;;;;;;34.30;19.25;;;;;;;7.58;62.13;101871.97;5032638;28;20029;-76
2021/03/24 08:14:13;;;;;;;50.22;20.02;;;;;;;7.54;62.48;101874.03;5031726;28;20053;-75
2021/03/24 08:16:55;;;;;;;39.10;23.70;;;;;;;7.45;62.64;101855.28;5031233;28;20045;-76
2021/03/24 08:19:56;;;;;;;40.55;20.95;;;;;;;7.68;62.27;101872.13;5031234;28;20466;-76
2021/03/24 08:22:39;;;;;;;50.63;28.63;;;;;;;7.99;60.90;101873.31;5030876;28;20060;-75
2021/03/24 08:25:26;;;;;;;57.92;29.95;;;;;;;7.98;61.92;101871.59;5031149;28;20041;-75
2021/03/24 08:28:11;;;;;;;78.18;44.67;;;;;;;8.28;60.57;101857.72;5030944;28;20382;-75
2021/03/24 08:31:18;;;;;;;137.20;76.30;;;;;;;8.50;59.43;101853.41;5031210;28;20459;-75
2021/03/24 08:34:01;;;;;;;103.00;58.65;;;;;;;9.11;57.98;101867.13;5018317;28;20438;-76
2021/03/24 08:36:54;;;;;;;52.25;29.80;;;;;;;8.93;57.17;101855.28;5031281;28;20040;-75
2021/03/24 08:39:35;;;;;;;48.10;25.25;;;;;;;9.01;56.98;101858.16;5030691;28;20366;-76
2021/03/24 08:42:22;;;;;;;33.95;19.25;;;;;;;9.33;57.03;101857.34;5031098;28;20378;-76
2021/03/24 08:45:24;;;;;;;33.47;19.02;;;;;;;9.56;55.55;101856.28;5031840;28;20033;-75
2021/03/24 08:47:56;;;;;;;32.28;18.83;;;;;;;9.83;55.06;101866.44;5025624;28;20093;-75
2021/03/24 08:50:32;;;;;;;33.85;18.20;;;;;;;10.00;54.96;101853.50;5031919;28;20041;-75
2021/03/24 08:53:21;;;;;;;29.48;17.63;;;;;;;10.77;53.13;101856.50;5032087;28;20367;-75
2021/03/24 08:56:01;;;;;;;28.08;17.70;;;;;;;11.29;50.79;101842.94;5030890;28;20048;-76
2021/03/24 08:58:32;;;;;;;24.63;15.27;;;;;;;10.53;52.09;101848.81;5031517;28;20048;-75
2021/03/24 09:01:16;;;;;;;30.98;16.20;;;;;;;11.14;51.25;101839.84;5030642;28;20033;-75
2021/03/24 09:04:15;;;;;;;24.98;16.95;;;;;;;10.62;52.17;101851.66;5030529;28;20347;-75
2021/03/24 09:07:04;;;;;;;27.50;16.77;;;;;;;11.20;51.77;101852.63;5031330;28;20056;-75
2021/03/24 09:09:41;;;;;;;29.48;16.77;;;;;;;11.00;50.94;101850.91;5030388;28;20045;-75
2021/03/24 09:12:25;;;;;;;26.10;16.70;;;;;;;11.45;50.74;101850.41;5031533;28;20041;-75
2021/03/24 09:14:56;;;;;;;28.35;16.67;;;;;;;11.28;49.74;101849.25;5030794;28;20040;-76
2021/03/24 09:17:59;;;;;;;29.98;16.90;;;;;;;10.68;52.18;101853.81;5031445;28;20045;-76
2021/03/24 09:21:06;;;;;;;30.75;18.02;;;;;;;10.55;51.64;101838.84;5031343;28;20120;-75
2021/03/24 09:24:04;;;;;;;26.73;17.27;;;;;;;11.64;51.12;101848.69;5006091;28;20048;-76
2021/03/24 09:27:06;;;;;;;28.60;17.17;;;;;;;11.93;50.38;101849.50;5030423;28;20606;-75
2021/03/24 09:29:44;;;;;;;27.65;17.52;;;;;;;10.29;52.70;101835.81;5031129;28;20037;-75
2021/03/24 09:32:21;;;;;;;31.92;18.08;;;;;;;10.78;52.00;101841.31;5030507;28;20045;-76
2021/03/24 09:34:46;;;;;;;50.25;25.83;;;;;;;10.78;51.50;101852.00;5030504;28;20463;-76
2021/03/24 09:37:20;;;;;;;36.57;20.70;;;;;;;10.85;51.47;101844.28;5030302;28;20068;-76
2021/03/24 09:39:50;;;;;;;31.67;18.52;;;;;;;11.24;52.65;101838.97;5030095;28;20091;-76
2021/03/24 09:42:37;;;;;;;30.70;18.08;;;;;;;10.76;52.12;101843.28;5030235;28;20029;-75
2021/03/24 09:45:14;;;;;;;75.30;39.67;;;;;;;10.98;51.93;101837.69;5031049;28;20040;-75
2021/03/24 09:48:04;;;;;;;79.32;42.38;;;;;;;11.19;51.59;101834.91;5012439;28;20770;-75
2021/03/24 09:50:49;;;;;;;47.00;27.42;;;;;;;11.71;50.01;101834.59;5028368;28;20038;-74
2021/03/24 09:53:22;;;;;;;47.22;25.48;;;;;;;11.87;50.29;101834.03;5028916;28;20045;-75
2021/03/24 09:56:02;;;;;;;40.75;22.13;;;;;;;11.90;50.43;101843.59;5029378;28;20033;-74
2021/03/24 09:58:40;;;;;;;38.95;22.02;;;;;;;11.54;50.17;101837.97;5029483;28;20367;-75
2021/03/24 10:01:10;;;;;;;36.72;22.85;;;;;;;11.33;50.71;101841.66;5028330;28;20124;-75
2021/03/24 10:03:57;;;;;;;40.83;22.20;;;;;;;11.17;51.55;101830.69;5013634;28;20037;-75
2021/03/24 10:06:31;;;;;;;34.97;20.65;;;;;;;11.63;51.42;101831.78;5031033;28;20033;-75
2021/03/24 10:09:09;;;;;;;45.53;24.95;;;;;;;12.26;49.72;101839.25;5030690;28;20041;-76
2021/03/24 10:12:02;;;;;;;42.70;22.80;;;;;;;12.38;49.10;101840.75;5029927;28;20095;-75
2021/03/24 10:14:36;;;;;;;37.50;22.02;;;;;;;11.92;49.87;101836.28;5029983;28;20451;-75
2021/03/24 10:17:12;;;;;;;32.80;19.90;;;;;;;12.17;49.02;101830.25;5030985;28;20903;-75
2021/03/24 10:19:45;;;;;;;35.53;19.80;;;;;;;12.01;49.78;101825.56;5030662;28;20466;-75
2021/03/24 10:22:21;;;;;;;38.17;21.27;;;;;;;12.08;50.03;101822.28;5029916;28;20037;-76
2021/03/24 10:24:56;;;;;;;38.28;22.08;;;;;;;11.76;49.92;101820.78;5030802;28;20073;-75
2021/03/24 10:27:27;;;;;;;40.50;22.83;;;;;;;11.51;50.09;101816.88;5029806;28;20099;-75
2021/03/24 10:29:58;;;;;;;38.78;22.33;;;;;;;11.96;50.47;101816.25;5030749;28;20091;-75
2021/03/24 10:32:38;;;;;;;35.10;20.73;;;;;;;11.95;50.18;101817.25;5029585;28;20451;-75
2021/03/24 10:35:25;;;;;;;39.95;22.23;;;;;;;12.18;49.82;101821.25;5029775;28;20037;-76
2021/03/24 10:38:13;;;;;;;34.83;22.13;;;;;;;12.36;49.14;101817.78;5029479;28;20132;-76
2021/03/24 10:40:45;;;;;;;33.67;19.10;;;;;;;12.90;47.16;101805.38;5030726;28;20037;-76
2021/03/24 10:43:27;;;;;;;37.95;20.13;;;;;;;13.10;47.42;101812.25;5029748;28;20382;-76
2021/03/24 10:46:11;;;;;;;32.25;18.88;;;;;;;13.60;44.98;101804.66;5032239;28;20164;-75
2021/03/24 10:48:51;;;;;;;30.60;20.00;;;;;;;13.08;45.80;101802.69;5033972;28;20037;-76
2021/03/24 10:51:40;;;;;;;37.22;20.67;;;;;;;12.52;46.93;101791.19;5033267;28;20371;-76
2021/03/24 10:54:20;;;;;;;30.90;19.25;;;;;;;12.77;46.92;101804.88;5033204;28;20120;-76
2021/03/24 10:57:07;;;;;;;27.92;17.52;;;;;;;14.59;43.61;101798.84;5016887;28;20040;-76
2021/03/24 11:00:18;;;;;;;30.75;18.58;;;;;;;14.61;42.30;101791.47;5033743;28;20037;-76
2021/03/24 11:03:01;;;;;;;26.30;18.27;;;;;;;12.88;44.97;101794.78;5033879;28;20048;-76
2021/03/24 11:05:39;;;;;;;26.60;17.83;;;;;;;13.26;45.69;101795.47;5033699;28;20037;-76
2021/03/24 11:08:41;;;;;;;32.35;19.42;;;;;;;13.92;43.27;101802.19;5032700;28;20049;-76
2021/03/24 11:11:30;;;;;;;28.52;16.77;;;;;;;14.67;42.86;101806.06;5033695;28;20041;-76
2021/03/24 11:14:12;;;;;;;28.20;17.02;;;;;;;13.72;42.73;101800.72;5032592;28;20455;-76
2021/03/24 11:16:52;;;;;;;29.75;17.42;;;;;;;13.85;43.16;101795.75;5032899;28;20111;-65
2021/03/24 11:19:30;;;;;;;27.85;18.20;;;;;;;13.99;42.30;101801.56;5032427;28;20037;-65
2021/03/24 11:22:08;;;;;;;25.48;16.15;;;;;;;14.51;41.58;101794.22;5033618;28;20118;-65
2021/03/24 11:24:42;;;;;;;28.58;18.45;;;;;;;15.22;40.45;101801.97;5032389;28;20045;-65
2021/03/24 11:27:34;;;;;;;30.52;18.92;;;;;;;16.05;38.19;101796.34;5032492;28;20068;-65
2021/03/24 11:30:21;;;;;;;32.85;18.90;;;;;;;15.37;39.11;101802.97;5031882;28;20064;-65
2021/03/24 11:32:58;;;;;;;31.77;17.83;;;;;;;15.90;38.59;101809.69;5033169;28;20037;-65
2021/03/24 11:35:30;;;;;;;29.23;18.80;;;;;;;14.76;40.79;101795.19;5032294;28;20026;-65
2021/03/24 11:38:08;;;;;;;32.75;20.42;;;;;;;13.40;43.02;101802.16;5031996;28;20038;-65
2021/03/24 11:40:44;;;;;;;32.92;22.02;;;;;;;12.84;44.76;101796.09;5032288;28;20045;-65
2021/03/24 11:43:22;;;;;;;36.55;21.00;;;;;;;13.09;44.80;101794.50;5032966;28;20044;-65
2021/03/24 11:45:48;;;;;;;37.92;20.77;;;;;;;12.94;45.22;101790.66;5033082;28;20034;-65
2021/03/24 11:48:17;;;;;;;38.22;22.48;;;;;;;13.88;44.08;101787.41;5032741;28;20542;-65
2021/03/24 11:50:53;;;;;;;39.47;20.20;;;;;;;13.47;43.94;101789.81;5015503;28;20045;-65
2021/03/24 11:53:32;;;;;;;32.75;20.08;;;;;;;12.91;44.95;101790.97;5032023;28;20041;-65
2021/03/24 11:56:31;;;;;;;36.58;20.65;;;;;;;13.49;44.42;101795.88;5031996;28;20037;-65
2021/03/24 11:59:15;;;;;;;35.28;20.90;;;;;;;14.33;42.52;101794.34;5032373;28;20037;-65
2021/03/24 12:01:53;;;;;;;32.22;20.83;;;;;;;14.78;42.92;101792.34;5032686;28;20041;-65